createdAt,value
2022-12-06T00:01:29.932Z,100610.16
2022-12-06T00:03:58.963Z,100610.31
2022-12-06T00:06:28.878Z,100608.38
2022-12-06T00:08:57.241Z,100606.75
2022-12-06T00:11:27.790Z,100596.75
2022-12-06T00:13:58.718Z,100603.88
2022-12-06T00:16:26.466Z,100586.75
2022-12-06T00:18:53.525Z,100599.84
2022-12-06T00:21:24.036Z,100589.03
2022-12-06T00:23:54.891Z,100581.12
2022-12-06T00:26:22.444Z,100582.09
2022-12-06T00:28:52.745Z,100587.88
2022-12-06T00:31:21.153Z,100589.03
2022-12-06T00:33:48.142Z,100583.38
2022-12-06T00:36:21.290Z,100577.88
2022-12-06T00:38:48.989Z,100577.75
2022-12-06T00:41:21.094Z,100568.69
2022-12-06T00:43:48.279Z,100567.44
2022-12-06T00:46:18.346Z,100567.59
2022-12-06T00:48:46.271Z,100563.22
2022-12-06T00:51:14.743Z,100555.63
2022-12-06T00:53:42.103Z,100549.37
2022-12-06T00:56:09.026Z,100542.63
2022-12-06T00:58:35.599Z,100534.06
2022-12-06T01:01:13.321Z,100545.00
2022-12-06T01:03:40.854Z,100540.66
2022-12-06T01:06:10.752Z,100529.06
2022-12-06T01:08:38.844Z,100525.03
2022-12-06T01:11:06.479Z,100534.53
2022-12-06T01:13:33.835Z,100526.62
2022-12-06T01:16:16.836Z,100523.44
2022-12-06T01:18:44.623Z,100511.66
2022-12-06T01:21:15.447Z,100511.03
2022-12-06T01:23:43.240Z,100518.28
2022-12-06T01:26:16.949Z,100512.16
2022-12-06T01:28:44.215Z,100503.12
2022-12-06T01:31:11.087Z,100510.38
2022-12-06T01:33:37.692Z,100502.94
2022-12-06T01:36:04.744Z,100487.47
2022-12-06T01:38:31.710Z,100476.38
2022-12-06T01:40:58.635Z,100475.88
2022-12-06T01:43:37.845Z,100464.78
2022-12-06T01:46:30.282Z,100468.00
2022-12-06T01:49:19.036Z,100450.59
2022-12-06T01:52:01.595Z,100434.47
2022-12-06T01:54:29.696Z,100440.94
2022-12-06T01:56:57.945Z,100432.22
2022-12-06T01:59:26.376Z,100426.44
2022-12-06T02:01:53.781Z,100427.41
2022-12-06T02:04:22.196Z,100424.69
2022-12-06T02:06:50.320Z,100424.19
2022-12-06T02:09:17.651Z,100417.75
2022-12-06T02:11:44.684Z,100424.69
2022-12-06T02:14:15.395Z,100442.41
2022-12-06T02:17:12.667Z,100466.38
2022-12-06T02:19:58.156Z,100511.50
2022-12-06T02:22:36.802Z,100515.37
2022-12-06T02:25:24.227Z,100495.56
2022-12-06T02:28:41.860Z,100496.66
2022-12-06T02:31:27.271Z,100499.25
2022-12-06T02:34:18.730Z,100502.16
2022-12-06T02:36:56.920Z,100492.16
2022-12-06T02:39:43.091Z,100488.63
2022-12-06T02:42:17.437Z,100494.75
2022-12-06T02:44:48.126Z,100496.19
2022-12-06T02:47:17.810Z,100504.72
2022-12-06T02:49:49.595Z,100504.72
2022-12-06T02:52:20.419Z,100501.50
2022-12-06T02:54:48.601Z,100497.63
2022-12-06T02:57:15.337Z,100491.06
2022-12-06T02:59:53.905Z,100494.09
2022-12-06T03:02:22.063Z,100485.72
2022-12-06T03:05:14.469Z,100491.06
2022-12-06T03:07:46.396Z,100481.37
2022-12-06T03:10:25.249Z,100470.59
2022-12-06T03:13:07.038Z,100469.12
2022-12-06T03:15:46.781Z,100461.25
2022-12-06T03:18:42.894Z,100449.31
2022-12-06T03:21:32.968Z,100456.56
2022-12-06T03:23:59.948Z,100438.19
2022-12-06T03:26:31.183Z,100415.16
2022-12-06T03:29:01.664Z,100422.56
2022-12-06T03:31:32.508Z,100418.22
2022-12-06T03:34:03.862Z,100412.59
2022-12-06T03:36:32.528Z,100402.28
2022-12-06T03:39:03.986Z,100417.91
2022-12-06T03:41:44.146Z,100409.06
2022-12-06T03:44:10.884Z,100409.87
2022-12-06T03:46:41.588Z,100396.19
2022-12-06T03:49:16.235Z,100406.34
2022-12-06T03:51:44.596Z,100395.03
2022-12-06T03:54:12.050Z,100388.31
2022-12-06T03:56:39.582Z,100387.00
2022-12-06T03:59:07.974Z,100381.38
2022-12-06T04:01:35.480Z,100374.28
2022-12-06T04:04:02.192Z,100368.00
2022-12-06T04:06:28.882Z,100382.50
2022-12-06T04:09:15.713Z,100383.44
2022-12-06T04:11:42.256Z,100382.66
2022-12-06T04:14:08.848Z,100369.28
2022-12-06T04:16:53.854Z,100381.06
2022-12-06T04:19:20.501Z,100369.13
2022-12-06T04:22:05.683Z,100364.31
2022-12-06T04:24:32.417Z,100359.47
2022-12-06T04:27:18.976Z,100369.47
2022-12-06T04:30:03.895Z,100381.19
2022-12-06T04:32:48.992Z,100386.34
2022-12-06T04:35:34.538Z,100375.09
2022-12-06T04:38:20.017Z,100363.66
2022-12-06T04:40:47.867Z,100364.31
2022-12-06T04:43:33.243Z,100379.09
2022-12-06T04:45:59.840Z,100403.09
2022-12-06T04:48:26.527Z,100437.41
2022-12-06T04:50:53.076Z,100436.75
2022-12-06T04:53:19.641Z,100434.34
2022-12-06T04:55:47.779Z,100442.41
2022-12-06T04:58:15.593Z,100435.16
2022-12-06T05:00:43.696Z,100431.28
2022-12-06T05:03:14.941Z,100432.25
2022-12-06T05:05:42.557Z,100432.25
2022-12-06T05:08:12.543Z,100419.84
2022-12-06T05:10:39.809Z,100427.72
2022-12-06T05:13:06.484Z,100417.59
2022-12-06T05:15:33.329Z,100413.25
2022-12-06T05:18:01.030Z,100407.59
2022-12-06T05:20:27.657Z,100404.06
2022-12-06T05:22:54.202Z,100410.84
2022-12-06T05:25:20.780Z,100401.34
2022-12-06T05:27:47.621Z,100406.16
2022-12-06T05:30:14.580Z,100417.09
2022-12-06T05:32:41.798Z,100419.38
2022-12-06T05:35:11.143Z,100412.44
2022-12-06T05:37:37.724Z,100416.28
2022-12-06T05:40:04.896Z,100425.97
2022-12-06T05:42:31.488Z,100421.62
2022-12-06T05:44:58.087Z,100409.87
2022-12-06T05:47:27.087Z,100421.94
2022-12-06T05:49:53.691Z,100416.94
2022-12-06T05:52:20.445Z,100419.53
2022-12-06T05:54:47.034Z,100419.19
2022-12-06T05:57:13.607Z,100408.75
2022-12-06T05:59:40.155Z,100413.87
2022-12-06T06:02:07.702Z,100418.06
2022-12-06T06:04:34.481Z,100416.28
2022-12-06T06:07:01.304Z,100407.47
2022-12-06T06:09:30.240Z,100408.41
2022-12-06T06:11:56.869Z,100403.59
2022-12-06T06:14:23.502Z,100388.94
2022-12-06T06:16:50.431Z,100391.84
2022-12-06T06:19:17.217Z,100380.88
2022-12-06T06:21:43.788Z,100376.37
2022-12-06T06:24:10.356Z,100377.97
2022-12-06T06:26:36.904Z,100381.97
2022-12-06T06:29:03.690Z,100382.47
2022-12-06T06:31:30.254Z,100383.28
2022-12-06T06:33:56.928Z,100377.00
2022-12-06T06:36:23.473Z,100375.53
2022-12-06T06:38:49.989Z,100373.94
2022-12-06T06:41:16.899Z,100365.59
2022-12-06T06:43:43.469Z,100367.03
2022-12-06T06:46:10.159Z,100376.53
2022-12-06T06:48:39.205Z,100373.44
2022-12-06T06:51:14.801Z,100371.03
2022-12-06T06:53:41.669Z,100359.94
2022-12-06T06:56:08.772Z,100369.25
2022-12-06T06:58:35.369Z,100365.87
2022-12-06T07:01:03.990Z,100363.78
2022-12-06T07:03:30.627Z,100365.72
2022-12-06T07:06:00.943Z,100365.09
2022-12-06T07:08:30.228Z,100370.38
2022-12-06T07:10:57.636Z,100365.38
2022-12-06T07:13:26.139Z,100360.72
2022-12-06T07:15:53.132Z,100356.56
2022-12-06T07:18:20.590Z,100362.19
2022-12-06T07:20:48.577Z,100372.81
2022-12-06T07:23:15.842Z,100376.50
2022-12-06T07:25:42.476Z,100372.47
2022-12-06T07:28:09.082Z,100360.44
2022-12-06T07:30:35.714Z,100359.75
2022-12-06T07:33:02.481Z,100364.56
2022-12-06T07:35:42.359Z,100373.44
2022-12-06T07:38:15.599Z,100384.41
2022-12-06T07:41:03.575Z,100379.56
2022-12-06T07:43:47.230Z,100377.66
2022-12-06T07:46:14.076Z,100361.88
2022-12-06T07:48:40.714Z,100376.53
2022-12-06T07:51:07.783Z,100367.81
2022-12-06T07:53:34.414Z,100383.91
2022-12-06T07:56:06.869Z,100378.59
2022-12-06T07:58:33.487Z,100376.34
2022-12-06T08:01:00.279Z,100375.06
2022-12-06T08:03:27.028Z,100358.81
2022-12-06T08:05:55.463Z,100366.03
2022-12-06T08:08:28.020Z,100361.69
2022-12-06T08:10:55.239Z,100359.88
2022-12-06T08:13:21.776Z,100364.56
2022-12-06T08:15:48.354Z,100375.78
2022-12-06T08:18:14.905Z,100374.97
2022-12-06T08:20:41.480Z,100376.69
2022-12-06T08:23:08.487Z,100391.94
2022-12-06T08:25:35.307Z,100384.75
2022-12-06T08:28:02.031Z,100382.31
2022-12-06T08:30:28.810Z,100377.62
2022-12-06T08:32:55.845Z,100381.75
2022-12-06T08:35:22.555Z,100389.91
2022-12-06T08:37:49.155Z,100392.41
2022-12-06T08:40:15.870Z,100396.06
2022-12-06T08:42:43.487Z,100407.13
2022-12-06T08:45:10.236Z,100402.94
2022-12-06T08:47:36.854Z,100398.38
2022-12-06T08:50:04.326Z,100409.78
2022-12-06T08:52:30.878Z,100401.06
2022-12-06T08:54:57.423Z,100400.09
2022-12-06T08:57:24.020Z,100402.69
2022-12-06T08:59:50.610Z,100395.53
2022-12-06T09:02:17.230Z,100401.81
2022-12-06T09:04:43.882Z,100401.44
2022-12-06T09:07:12.070Z,100392.25
2022-12-06T09:09:38.962Z,100384.75
2022-12-06T09:12:05.706Z,100386.72
2022-12-06T09:14:32.296Z,100383.47
2022-12-06T09:16:58.834Z,100388.69
2022-12-06T09:19:25.474Z,100388.69
2022-12-06T09:21:52.045Z,100387.56
2022-12-06T09:24:19.508Z,100378.38
2022-12-06T09:26:46.226Z,100374.56
2022-12-06T09:29:13.411Z,100389.47
2022-12-06T09:31:40.977Z,100376.69
2022-12-06T09:34:08.955Z,100373.53
2022-12-06T09:36:42.849Z,100375.13
2022-12-06T09:39:20.149Z,100379.91
2022-12-06T09:41:58.427Z,100383.50
2022-12-06T09:44:40.068Z,100387.88
2022-12-06T09:47:45.207Z,100386.81
2022-12-06T09:50:17.664Z,100389.03
2022-12-06T09:53:12.280Z,100389.75
2022-12-06T09:56:06.281Z,100390.00
2022-12-06T09:59:17.419Z,100393.41
2022-12-06T10:02:11.911Z,100379.13
2022-12-06T10:05:04.413Z,100372.84
2022-12-06T10:08:01.433Z,100379.16
2022-12-06T10:10:53.121Z,100383.72
2022-12-06T10:13:28.237Z,100386.34
2022-12-06T10:16:23.211Z,100380.75
2022-12-06T10:19:43.097Z,100373.72
2022-12-06T10:22:47.136Z,100368.34
2022-12-06T10:25:31.610Z,100358.72
2022-12-06T10:27:58.072Z,100363.25
2022-12-06T10:30:24.732Z,100359.94
2022-12-06T10:33:12.887Z,100360.00
2022-12-06T10:36:03.873Z,100357.00
2022-12-06T10:38:47.145Z,100349.78
2022-12-06T10:41:22.599Z,100338.91
2022-12-06T10:43:52.128Z,100322.94
2022-12-06T10:46:55.925Z,100327.47
2022-12-06T10:49:33.512Z,100321.41
2022-12-06T10:52:30.672Z,100318.47
2022-12-06T10:55:09.521Z,100318.06
2022-12-06T10:58:14.412Z,100320.94
2022-12-06T11:01:19.421Z,100323.47
2022-12-06T11:03:58.453Z,100320.34
2022-12-06T11:06:39.559Z,100313.94
2022-12-06T11:09:19.583Z,100308.47
2022-12-06T11:11:48.988Z,100306.81
2022-12-06T11:14:21.821Z,100288.00
2022-12-06T11:17:00.846Z,100296.34
2022-12-06T11:19:31.371Z,100286.88
2022-12-06T11:22:39.563Z,100292.72
2022-12-06T11:25:14.668Z,100293.63
2022-12-06T11:27:49.308Z,100291.63
2022-12-06T11:30:20.586Z,100296.69
2022-12-06T11:32:51.194Z,100289.62
2022-12-06T11:35:25.150Z,100292.91
2022-12-06T11:38:02.214Z,100298.41
2022-12-06T11:40:36.624Z,100283.84
2022-12-06T11:43:07.781Z,100295.59
2022-12-06T11:45:38.250Z,100295.09
2022-12-06T11:48:29.055Z,100286.91
2022-12-06T11:50:55.604Z,100288.25
2022-12-06T11:53:31.049Z,100289.84
2022-12-06T11:56:03.497Z,100291.37
2022-12-06T11:58:40.250Z,100291.34
2022-12-06T12:01:14.135Z,100297.81
2022-12-06T12:03:43.883Z,100293.94
2022-12-06T12:06:27.312Z,100295.00
2022-12-06T12:08:58.417Z,100296.72
2022-12-06T12:11:31.879Z,100305.91
2022-12-06T12:14:05.380Z,100301.19
2022-12-06T12:16:37.676Z,100305.44
2022-12-06T12:19:31.253Z,100308.53
2022-12-06T12:22:00.090Z,100306.28
2022-12-06T12:25:10.914Z,100313.75
2022-12-06T12:27:34.693Z,100318.91
2022-12-06T12:30:19.541Z,100320.09
2022-12-06T12:32:47.563Z,100313.22
2022-12-06T12:35:28.085Z,100323.41
2022-12-06T12:37:57.034Z,100323.09
2022-12-06T12:40:26.661Z,100319.75
2022-12-06T12:42:59.526Z,100320.34
2022-12-06T12:45:27.760Z,100320.75
2022-12-06T12:47:58.646Z,100320.41
2022-12-06T12:50:26.102Z,100327.66
2022-12-06T12:52:52.979Z,100322.31
2022-12-06T12:55:21.206Z,100321.16
2022-12-06T12:57:50.941Z,100318.47
2022-12-06T13:00:23.356Z,100317.53
2022-12-06T13:03:07.831Z,100314.87
2022-12-06T13:05:46.828Z,100310.44
2022-12-06T13:08:13.819Z,100307.94
2022-12-06T13:10:44.652Z,100314.63
2022-12-06T13:13:21.996Z,100307.78
2022-12-06T13:15:53.972Z,100306.56
2022-12-06T13:18:28.400Z,100311.37
2022-12-06T13:20:57.835Z,100305.47
2022-12-06T13:23:34.015Z,100312.72
2022-12-06T13:26:22.491Z,100314.66
2022-12-06T13:28:54.932Z,100315.37
2022-12-06T13:31:25.393Z,100305.97
2022-12-06T13:33:53.648Z,100309.38
2022-12-06T13:36:21.740Z,100316.88
2022-12-06T13:38:48.416Z,100311.09
2022-12-06T13:41:54.710Z,100301.03
2022-12-06T13:44:41.861Z,100305.66
2022-12-06T13:47:26.509Z,100307.72
2022-12-06T13:50:23.278Z,100310.66
2022-12-06T13:52:49.733Z,100311.59
2022-12-06T13:55:25.446Z,100306.78
2022-12-06T13:58:17.166Z,100313.34
2022-12-06T14:00:43.633Z,100316.19
2022-12-06T14:03:13.127Z,100319.31
2022-12-06T14:06:06.004Z,100312.06
2022-12-06T14:08:43.458Z,100314.84
2022-12-06T14:11:13.725Z,100310.72
2022-12-06T14:13:42.195Z,100319.91
2022-12-06T14:16:12.386Z,100318.13
2022-12-06T14:18:42.111Z,100305.72
2022-12-06T14:21:22.566Z,100312.75
2022-12-06T14:23:49.229Z,100311.81
2022-12-06T14:26:22.879Z,100306.53
2022-12-06T14:28:51.809Z,100312.66
2022-12-06T14:31:28.475Z,100301.59
2022-12-06T14:33:56.480Z,100305.66
2022-12-06T14:36:30.683Z,100304.81
2022-12-06T14:39:05.748Z,100312.63
2022-12-06T14:41:56.607Z,100311.53
2022-12-06T14:44:31.678Z,100313.44
2022-12-06T14:46:59.232Z,100308.78
2022-12-06T14:49:46.327Z,100312.16
2022-12-06T14:52:42.351Z,100316.16
2022-12-06T14:55:11.572Z,100310.50
2022-12-06T14:57:45.638Z,100306.69
2022-12-06T15:00:27.045Z,100310.06
2022-12-06T15:03:11.551Z,100305.37
2022-12-06T15:05:57.241Z,100307.94
2022-12-06T15:08:33.275Z,100320.16
2022-12-06T15:11:06.811Z,100312.31
2022-12-06T15:13:33.525Z,100325.78
2022-12-06T15:16:04.324Z,100322.66
2022-12-06T15:18:35.173Z,100322.88
2022-12-06T15:21:01.960Z,100327.59
2022-12-06T15:23:36.640Z,100330.66
2022-12-06T15:26:05.370Z,100332.81
2022-12-06T15:28:31.977Z,100345.63
2022-12-06T15:30:58.604Z,100339.84
2022-12-06T15:33:27.275Z,100343.03
2022-12-06T15:35:54.396Z,100344.16
2022-12-06T15:38:21.624Z,100343.62
2022-12-06T15:40:50.834Z,100346.44
2022-12-06T15:43:31.607Z,100348.59
2022-12-06T15:46:01.195Z,100346.50
2022-12-06T15:48:34.649Z,100359.84
2022-12-06T15:51:01.647Z,100355.44
2022-12-06T15:53:29.289Z,100356.59
2022-12-06T15:55:56.251Z,100362.94
2022-12-06T15:58:22.900Z,100367.56
2022-12-06T16:00:50.483Z,100366.69
2022-12-06T16:03:17.218Z,100365.53
2022-12-06T16:05:43.901Z,100360.50
2022-12-06T16:08:10.562Z,100367.88
2022-12-06T16:11:10.329Z,100355.03
2022-12-06T16:13:24.064Z,100358.16
2022-12-06T16:15:52.486Z,100362.28
2022-12-06T16:18:20.317Z,100368.44
2022-12-06T16:20:47.596Z,100367.25
2022-12-06T16:24:11.369Z,100369.91
2022-12-06T16:26:25.451Z,100365.94
2022-12-06T16:28:52.013Z,100373.56
2022-12-06T16:31:18.712Z,100373.16
2022-12-06T16:33:45.301Z,100378.31
2022-12-06T16:36:14.090Z,100372.37
2022-12-06T16:38:40.779Z,100370.03
2022-12-06T16:41:10.883Z,100369.53
2022-12-06T16:43:37.427Z,100364.56
2022-12-06T16:46:34.296Z,100372.19
2022-12-06T16:49:16.101Z,100364.41
2022-12-06T16:51:49.147Z,100371.19
2022-12-06T16:54:17.399Z,100368.69
2022-12-06T16:56:44.692Z,100367.28
2022-12-06T16:59:16.275Z,100373.97
2022-12-06T17:01:50.742Z,100370.25
2022-12-06T17:04:17.720Z,100367.97
2022-12-06T17:06:44.957Z,100374.66
2022-12-06T17:09:12.062Z,100374.81
2022-12-06T17:11:57.999Z,100373.75
2022-12-06T17:14:28.151Z,100364.06
2022-12-06T17:16:56.006Z,100369.28
2022-12-06T17:19:28.088Z,100361.25
2022-12-06T17:21:55.235Z,100369.50
2022-12-06T17:24:23.042Z,100364.28
2022-12-06T17:26:49.831Z,100370.75
2022-12-06T17:29:17.508Z,100367.28
2022-12-06T17:31:44.409Z,100360.28
2022-12-06T17:34:14.791Z,100377.09
2022-12-06T17:36:44.784Z,100359.47
2022-12-06T17:39:15.036Z,100359.03
2022-12-06T17:42:00.266Z,100363.22
2022-12-06T17:44:26.954Z,100361.88
2022-12-06T17:46:54.076Z,100369.41
2022-12-06T17:49:23.390Z,100359.31
2022-12-06T17:51:50.957Z,100363.09
2022-12-06T17:54:19.389Z,100357.16
2022-12-06T17:56:51.591Z,100368.19
2022-12-06T17:59:21.068Z,100366.16
2022-12-06T18:02:14.148Z,100368.19
2022-12-06T18:04:35.266Z,100379.22
2022-12-06T18:07:01.868Z,100372.22
2022-12-06T18:09:28.466Z,100376.63
2022-12-06T18:11:57.304Z,100374.06
2022-12-06T18:14:23.875Z,100363.53
2022-12-06T18:16:50.736Z,100363.13
2022-12-06T18:19:20.183Z,100368.06
2022-12-06T18:21:52.127Z,100368.12
2022-12-06T18:24:22.010Z,100362.59
2022-12-06T18:26:49.967Z,100360.16
2022-12-06T18:29:20.008Z,100358.06
2022-12-06T18:31:47.338Z,100361.59
2022-12-06T18:34:14.301Z,100353.53
2022-12-06T18:36:41.716Z,100354.19
2022-12-06T18:39:14.806Z,100337.62
2022-12-06T18:41:41.843Z,100342.31
2022-12-06T18:44:10.227Z,100347.94
2022-12-06T18:46:38.930Z,100353.56
2022-12-06T18:49:05.999Z,100343.28
2022-12-06T18:51:34.933Z,100350.34
2022-12-06T18:54:04.461Z,100360.97
2022-12-06T18:56:35.719Z,100358.31
2022-12-06T18:59:04.393Z,100358.50
2022-12-06T19:01:33.421Z,100361.22
2022-12-06T19:04:03.044Z,100360.75
2022-12-06T19:06:37.996Z,100359.69
2022-12-06T19:09:08.271Z,100348.09
2022-12-06T19:11:45.840Z,100354.56
2022-12-06T19:14:14.640Z,100357.81
2022-12-06T19:16:44.155Z,100356.00
2022-12-06T19:19:16.625Z,100359.44
2022-12-06T19:21:47.816Z,100352.41
2022-12-06T19:24:16.928Z,100353.91
2022-12-06T19:26:44.305Z,100351.66
2022-12-06T19:29:11.055Z,100364.06
2022-12-06T19:31:37.752Z,100362.00
2022-12-06T19:34:04.536Z,100368.84
2022-12-06T19:36:31.833Z,100377.84
2022-12-06T19:39:01.294Z,100376.75
2022-12-06T19:41:27.891Z,100383.81
2022-12-06T19:44:13.293Z,100374.44
2022-12-06T19:46:42.772Z,100365.22
2022-12-06T19:49:10.450Z,100362.00
2022-12-06T19:51:38.733Z,100367.56
2022-12-06T19:54:07.076Z,100366.91
2022-12-06T19:56:34.452Z,100361.56
2022-12-06T19:59:04.354Z,100357.25
2022-12-06T20:01:31.356Z,100361.56
2022-12-06T20:03:58.019Z,100370.19
2022-12-06T20:06:26.837Z,100374.28
2022-12-06T20:08:56.214Z,100363.88
2022-12-06T20:11:44.259Z,100360.59
2022-12-06T20:14:14.170Z,100353.03
2022-12-06T20:16:42.472Z,100352.84
2022-12-06T20:19:10.615Z,100341.78
2022-12-06T20:21:37.425Z,100359.16
2022-12-06T20:24:07.284Z,100369.06
2022-12-06T20:26:34.091Z,100358.66
2022-12-06T20:29:01.077Z,100365.81
2022-12-06T20:31:33.054Z,100358.78
2022-12-06T20:34:02.161Z,100359.56
2022-12-06T20:36:31.845Z,100356.00
2022-12-06T20:38:59.829Z,100354.41
2022-12-06T20:41:33.099Z,100360.00
2022-12-06T20:44:04.432Z,100360.72
2022-12-06T20:46:31.865Z,100355.91
2022-12-06T20:49:04.963Z,100354.72
2022-12-06T20:51:35.015Z,100352.16
2022-12-06T20:54:04.301Z,100349.47
2022-12-06T20:56:34.578Z,100343.66
2022-12-06T20:59:02.551Z,100343.78
2022-12-06T21:01:34.051Z,100341.78
2022-12-06T21:04:00.828Z,100345.13
2022-12-06T21:06:29.878Z,100355.03
2022-12-06T21:08:56.569Z,100347.81
2022-12-06T21:11:26.451Z,100349.13
2022-12-06T21:13:55.276Z,100353.62
2022-12-06T21:16:28.062Z,100349.44
2022-12-06T21:19:00.842Z,100354.78
2022-12-06T21:21:34.309Z,100353.16
2022-12-06T21:24:02.751Z,100352.91
2022-12-06T21:26:30.098Z,100360.22
2022-12-06T21:28:57.433Z,100360.66
2022-12-06T21:31:35.139Z,100366.94
2022-12-06T21:34:02.516Z,100354.34
2022-12-06T21:36:31.667Z,100367.31
2022-12-06T21:38:58.694Z,100370.44
2022-12-06T21:41:25.669Z,100363.34
2022-12-06T21:43:52.334Z,100369.16
2022-12-06T21:46:21.265Z,100375.06
2022-12-06T21:48:58.020Z,100371.00
2022-12-06T21:51:30.565Z,100364.06
2022-12-06T21:54:00.451Z,100372.25
2022-12-06T21:56:29.510Z,100377.75
2022-12-06T21:58:56.522Z,100381.88
2022-12-06T22:01:27.861Z,100367.41
2022-12-06T22:03:56.240Z,100363.03
2022-12-06T22:06:25.196Z,100365.94
2022-12-06T22:09:04.419Z,100369.81
2022-12-06T22:11:31.673Z,100366.03
2022-12-06T22:14:02.459Z,100370.62
2022-12-06T22:16:29.537Z,100364.38
2022-12-06T22:19:01.606Z,100369.16
2022-12-06T22:21:31.259Z,100366.78
2022-12-06T22:23:58.581Z,100373.78
2022-12-06T22:26:28.342Z,100365.53
2022-12-06T22:28:55.415Z,100365.41
2022-12-06T22:31:24.718Z,100360.91
2022-12-06T22:33:52.237Z,100359.44
2022-12-06T22:36:20.961Z,100363.59
2022-12-06T22:38:56.251Z,100365.00
2022-12-06T22:41:23.801Z,100357.34
2022-12-06T22:43:52.451Z,100350.91
2022-12-06T22:46:19.347Z,100351.53
2022-12-06T22:48:46.557Z,100355.75
2022-12-06T22:51:19.351Z,100349.47
2022-12-06T22:53:48.380Z,100348.81
2022-12-06T22:56:15.639Z,100346.41
2022-12-06T22:58:42.423Z,100341.91
2022-12-06T23:01:16.699Z,100344.50
2022-12-06T23:03:45.260Z,100345.91
2022-12-06T23:06:12.938Z,100341.41
2022-12-06T23:08:39.612Z,100338.31
2022-12-06T23:11:10.157Z,100337.34
2022-12-06T23:13:36.902Z,100336.22
2022-12-06T23:16:07.511Z,100343.13
2022-12-06T23:18:34.911Z,100334.41
2022-12-06T23:21:22.228Z,100331.22
2022-12-06T23:23:52.089Z,100330.44
2022-12-06T23:26:21.746Z,100325.63
2022-12-06T23:28:48.809Z,100317.56
2022-12-06T23:31:27.804Z,100321.31
2022-12-06T23:34:03.066Z,100316.22
2022-12-06T23:36:31.166Z,100311.25
2022-12-06T23:38:57.890Z,100317.44
2022-12-06T23:41:27.196Z,100310.72
2022-12-06T23:43:55.879Z,100313.25
2022-12-06T23:46:28.065Z,100299.53
2022-12-06T23:48:54.967Z,100295.22
2022-12-06T23:51:24.376Z,100291.97
2022-12-06T23:53:59.083Z,100284.31
2022-12-06T23:56:34.190Z,100289.03
2022-12-06T23:59:02.180Z,100291.81
